Grimbergen, Belgium
Current Conditions -  °F | °C
As of 8:20 AM on Saturday 29 Nov 2014 (Local Time) from EBBR Reporting Station
Haze Haze  
Wind Chill: 36°   Ceiling: Unl
Heat Index: 36°   Visibility: 2.5mi
Dew Point: 34°   Wind: 3mph
Humidity: 93%   Direction: 90°E
Pressure: 29.88"   Gusts: NA
Location:  50.93°N, 4.37°E
Report Text: EBBR 290720Z 09003KT 4000 BR NSC 02/01 Q1012 NOSIG
Loading
Personal Weather Stations






























Interactive Weather Map New forecast layout! Learn more

10-Day Weather Forecast

Advertisements
Track Severe Weather on mobile